createdAt,value
2022-09-27T00:02:09.422Z,12.21
2022-09-27T00:04:37.649Z,12.33
2022-09-27T00:07:06.110Z,12.08
2022-09-27T00:09:34.713Z,12.27
2022-09-27T00:12:03.181Z,12.36
2022-09-27T00:14:31.196Z,11.94
2022-09-27T00:17:00.583Z,11.96
2022-09-27T00:19:28.758Z,12.18
2022-09-27T00:21:57.942Z,12.12
2022-09-27T00:24:26.074Z,12.15
2022-09-27T00:26:54.314Z,12.45
2022-09-27T00:29:22.488Z,11.75
2022-09-27T00:31:50.835Z,12.02
2022-09-27T00:34:22.723Z,12.05
2022-09-27T00:36:51.865Z,11.97
2022-09-27T00:39:20.078Z,12.03
2022-09-27T00:41:48.490Z,12.05
2022-09-27T00:44:59.295Z,11.83
2022-09-27T00:47:31.826Z,11.95
2022-09-27T00:50:06.642Z,12.17
2022-09-27T00:52:43.263Z,12.13
2022-09-27T00:55:16.359Z,12.29
2022-09-27T00:57:46.221Z,11.97
2022-09-27T01:00:16.329Z,12.26
2022-09-27T01:02:48.729Z,11.80
2022-09-27T01:05:23.159Z,11.98
2022-09-27T01:07:51.408Z,11.98
2022-09-27T01:10:22.862Z,12.20
2022-09-27T01:13:03.406Z,12.12
2022-09-27T01:15:40.177Z,12.05
2022-09-27T01:18:25.970Z,12.35
2022-09-27T01:21:20.500Z,12.18
2022-09-27T01:24:16.763Z,12.14
2022-09-27T01:27:12.205Z,11.85
2022-09-27T01:29:56.684Z,12.09
2022-09-27T01:32:36.704Z,12.20
2022-09-27T01:35:15.562Z,12.15
2022-09-27T01:37:56.792Z,12.56
2022-09-27T01:40:31.388Z,12.26
2022-09-27T01:43:28.548Z,12.14
2022-09-27T01:46:03.098Z,12.33
2022-09-27T01:48:56.436Z,12.57
2022-09-27T01:51:29.347Z,12.41
2022-09-27T01:54:03.660Z,12.51
2022-09-27T01:56:39.309Z,12.44
2022-09-27T01:59:15.646Z,12.17
2022-09-27T02:01:53.639Z,12.29
2022-09-27T02:04:29.893Z,12.42
2022-09-27T02:07:19.402Z,12.32
2022-09-27T02:09:54.300Z,12.24
2022-09-27T02:12:31.129Z,11.98
2022-09-27T02:15:05.208Z,12.52
2022-09-27T02:17:44.270Z,12.40
2022-09-27T02:20:19.682Z,11.77
2022-09-27T02:22:58.502Z,12.17
2022-09-27T02:25:31.818Z,11.98
2022-09-27T02:28:05.017Z,12.15
2022-09-27T02:30:35.797Z,11.84
2022-09-27T02:33:17.178Z,11.84
2022-09-27T02:35:47.190Z,12.03
2022-09-27T02:38:15.474Z,11.92
2022-09-27T02:40:47.730Z,12.17
2022-09-27T02:43:18.900Z,12.11
2022-09-27T02:46:02.509Z,12.16
2022-09-27T02:48:38.722Z,12.27
2022-09-27T02:51:28.838Z,12.33
2022-09-27T02:54:12.637Z,12.19
2022-09-27T02:57:13.063Z,11.82
2022-09-27T03:00:09.670Z,11.95
2022-09-27T03:02:58.892Z,11.81
2022-09-27T03:05:34.963Z,11.60
2022-09-27T03:08:05.751Z,11.73
2022-09-27T03:10:34.396Z,11.86
2022-09-27T03:13:04.454Z,11.80
2022-09-27T03:15:33.192Z,12.01
2022-09-27T03:18:01.310Z,12.20
2022-09-27T03:20:47.848Z,11.83
2022-09-27T03:23:19.710Z,11.91
2022-09-27T03:25:47.981Z,11.90
2022-09-27T03:28:16.249Z,12.13
2022-09-27T03:30:46.873Z,11.96
2022-09-27T03:33:27.814Z,11.98
2022-09-27T03:36:00.012Z,11.64
2022-09-27T03:38:29.561Z,11.89
2022-09-27T03:40:58.435Z,11.78
2022-09-27T03:43:26.537Z,11.83
2022-09-27T03:45:58.088Z,12.13
2022-09-27T03:48:28.316Z,11.97
2022-09-27T03:50:56.489Z,11.84
2022-09-27T03:53:24.732Z,11.66
2022-09-27T03:55:54.648Z,11.40
2022-09-27T03:58:22.525Z,11.74
2022-09-27T04:00:50.474Z,11.58
2022-09-27T04:03:19.871Z,11.24
2022-09-27T04:06:06.462Z,11.39
2022-09-27T04:08:39.541Z,11.63
2022-09-27T04:11:09.432Z,11.57
2022-09-27T04:13:38.740Z,11.62
2022-09-27T04:16:07.794Z,11.60
2022-09-27T04:19:10.719Z,11.82
2022-09-27T04:21:41.687Z,11.94
2022-09-27T04:24:11.924Z,12.08
2022-09-27T04:26:49.740Z,12.12
2022-09-27T04:29:23.740Z,12.13
2022-09-27T04:31:54.006Z,12.17
2022-09-27T04:35:17.091Z,11.89
2022-09-27T04:37:46.586Z,11.36
2022-09-27T04:40:16.756Z,11.59
2022-09-27T04:42:46.050Z,11.51
2022-09-27T04:45:14.228Z,11.78
2022-09-27T04:47:44.284Z,11.63
2022-09-27T04:50:12.918Z,11.84
2022-09-27T04:52:56.446Z,11.99
2022-09-27T04:55:24.727Z,11.44
2022-09-27T04:57:54.408Z,11.42
2022-09-27T05:00:22.902Z,11.56
2022-09-27T05:02:57.650Z,11.33
2022-09-27T05:05:38.488Z,11.43
2022-09-27T05:08:06.798Z,11.73
2022-09-27T05:10:55.462Z,11.48
2022-09-27T05:13:24.739Z,11.57
2022-09-27T05:15:52.869Z,11.59
2022-09-27T05:18:46.742Z,11.50
2022-09-27T05:21:33.203Z,11.27
2022-09-27T05:24:01.184Z,11.52
2022-09-27T05:26:31.421Z,11.69
2022-09-27T05:29:00.845Z,11.87
2022-09-27T05:31:29.317Z,11.85
2022-09-27T05:33:57.334Z,11.94
2022-09-27T05:36:34.714Z,11.60
2022-09-27T05:39:02.598Z,11.60
2022-09-27T05:41:32.782Z,11.51
2022-09-27T05:44:02.599Z,11.25
2022-09-27T05:46:30.520Z,11.31
2022-09-27T05:48:58.770Z,11.39
2022-09-27T05:51:26.707Z,11.71
2022-09-27T05:53:54.885Z,11.94
2022-09-27T05:56:28.420Z,11.22
2022-09-27T05:59:29.968Z,11.35
2022-09-27T06:02:16.739Z,11.29
2022-09-27T06:04:56.930Z,11.36
2022-09-27T06:07:43.408Z,11.61
2022-09-27T06:10:16.842Z,11.53
2022-09-27T06:12:44.861Z,11.51
2022-09-27T06:15:36.109Z,11.42
2022-09-27T06:18:06.257Z,11.79
2022-09-27T06:20:35.969Z,11.42
2022-09-27T06:23:08.079Z,11.44
2022-09-27T06:25:39.120Z,11.69
2022-09-27T06:28:20.550Z,11.66
2022-09-27T06:30:52.446Z,11.41
2022-09-27T06:33:29.111Z,11.40
2022-09-27T06:36:02.655Z,11.53
2022-09-27T06:38:31.833Z,11.84
2022-09-27T06:41:14.553Z,11.80
2022-09-27T06:43:54.327Z,11.74
2022-09-27T06:46:42.725Z,11.54
2022-09-27T06:49:29.341Z,11.32
2022-09-27T06:51:58.524Z,11.66
2022-09-27T06:54:26.481Z,11.29
2022-09-27T06:56:56.954Z,11.27
2022-09-27T06:59:44.345Z,11.21
2022-09-27T07:02:32.131Z,11.22
2022-09-27T07:05:21.302Z,11.23
2022-09-27T07:08:07.875Z,11.06
2022-09-27T07:10:37.748Z,11.16
2022-09-27T07:13:07.435Z,11.56
2022-09-27T07:15:37.107Z,11.57
2022-09-27T07:18:09.615Z,11.67
2022-09-27T07:20:38.339Z,12.00
2022-09-27T07:23:08.501Z,11.60
2022-09-27T07:25:36.736Z,11.68
2022-09-27T07:28:07.049Z,11.38
2022-09-27T07:30:37.901Z,11.62
2022-09-27T07:33:09.004Z,11.72
2022-09-27T07:35:40.240Z,11.57
2022-09-27T07:38:10.259Z,11.66
2022-09-27T07:40:39.151Z,11.79
2022-09-27T07:43:08.166Z,11.40
2022-09-27T07:45:37.538Z,11.64
2022-09-27T07:48:24.767Z,11.95
2022-09-27T07:51:21.610Z,11.99
2022-09-27T07:53:53.338Z,12.66
2022-09-27T07:56:41.543Z,12.06
2022-09-27T07:59:12.808Z,12.11
2022-09-27T08:01:40.884Z,12.64
2022-09-27T08:04:10.436Z,12.71
2022-09-27T08:06:38.384Z,12.81
2022-09-27T08:09:07.315Z,13.24
2022-09-27T08:11:35.523Z,12.87
2022-09-27T08:14:05.008Z,12.47
2022-09-27T08:16:35.485Z,12.58
2022-09-27T08:19:18.265Z,12.43
2022-09-27T08:22:04.808Z,13.46
2022-09-27T08:24:47.187Z,14.20
2022-09-27T08:27:33.821Z,14.00
2022-09-27T08:30:05.082Z,13.89
2022-09-27T08:32:33.832Z,13.46
2022-09-27T08:35:04.750Z,13.74
2022-09-27T08:37:35.274Z,13.25
2022-09-27T08:40:03.993Z,13.75
2022-09-27T08:42:43.109Z,14.05
2022-09-27T08:45:18.614Z,13.88
2022-09-27T08:47:51.315Z,13.28
2022-09-27T08:50:29.175Z,13.17
2022-09-27T08:53:03.802Z,13.45
2022-09-27T08:55:37.290Z,13.64
2022-09-27T08:58:16.330Z,13.83
2022-09-27T09:00:44.498Z,13.88
2022-09-27T09:03:19.561Z,13.46
2022-09-27T09:06:01.754Z,13.75
2022-09-27T09:08:42.951Z,13.31
2022-09-27T09:11:45.321Z,13.54
2022-09-27T09:14:27.332Z,13.35
2022-09-27T09:17:05.117Z,13.03
2022-09-27T09:19:55.078Z,12.80
2022-09-27T09:22:45.939Z,12.93
2022-09-27T09:25:24.683Z,13.03
2022-09-27T09:28:05.478Z,13.28
2022-09-27T09:30:43.373Z,12.88
2022-09-27T09:33:27.559Z,13.44
2022-09-27T09:36:01.194Z,13.88
2022-09-27T09:38:40.571Z,13.93
2022-09-27T09:41:16.275Z,14.38
2022-09-27T09:43:48.203Z,15.04
2022-09-27T09:46:22.937Z,15.65
2022-09-27T09:48:58.636Z,15.19
2022-09-27T09:51:35.099Z,15.47
2022-09-27T09:54:10.046Z,14.89
2022-09-27T09:56:45.759Z,14.82
2022-09-27T09:59:19.060Z,14.95
2022-09-27T10:01:57.403Z,14.33
2022-09-27T10:04:27.977Z,14.55
2022-09-27T10:07:00.578Z,15.01
2022-09-27T10:09:34.713Z,14.83
2022-09-27T10:12:23.254Z,14.86
2022-09-27T10:14:55.307Z,15.47
2022-09-27T10:17:28.366Z,15.28
2022-09-27T10:19:59.875Z,15.38
2022-09-27T10:22:33.873Z,14.70
2022-09-27T10:25:10.834Z,14.76
2022-09-27T10:27:56.686Z,14.88
2022-09-27T10:30:32.570Z,14.61
2022-09-27T10:33:07.784Z,14.95
2022-09-27T10:35:45.132Z,14.52
2022-09-27T10:38:26.455Z,14.71
2022-09-27T10:41:18.554Z,14.84
2022-09-27T10:43:46.650Z,14.95
2022-09-27T10:46:28.585Z,15.12
2022-09-27T10:49:19.052Z,14.74
2022-09-27T10:51:52.028Z,14.67
2022-09-27T10:54:22.423Z,15.19
2022-09-27T10:57:05.366Z,14.69
2022-09-27T10:59:37.623Z,14.99
2022-09-27T11:02:08.152Z,14.54
2022-09-27T11:04:40.359Z,15.01
2022-09-27T11:07:15.009Z,15.48
2022-09-27T11:09:52.742Z,15.19
2022-09-27T11:12:25.201Z,15.03
2022-09-27T11:14:57.968Z,14.92
2022-09-27T11:17:36.603Z,13.98
2022-09-27T11:20:14.947Z,14.23
2022-09-27T11:23:23.332Z,14.82
2022-09-27T11:26:05.965Z,14.51
2022-09-27T11:28:45.774Z,14.27
2022-09-27T11:31:35.520Z,14.17
2022-09-27T11:34:29.848Z,14.62
2022-09-27T11:37:07.770Z,14.13
2022-09-27T11:39:51.165Z,14.32
2022-09-27T11:42:39.960Z,14.20
2022-09-27T11:45:45.404Z,13.95
2022-09-27T11:48:31.083Z,13.78
2022-09-27T11:51:21.632Z,13.67
2022-09-27T11:54:06.778Z,14.10
2022-09-27T11:56:46.489Z,13.24
2022-09-27T11:59:42.948Z,12.19
2022-09-27T12:02:28.975Z,11.61
2022-09-27T12:05:15.534Z,11.52
2022-09-27T12:08:08.169Z,12.13
2022-09-27T12:10:39.146Z,12.33
2022-09-27T12:13:12.961Z,12.93
2022-09-27T12:15:44.972Z,12.54
2022-09-27T12:18:25.806Z,13.05
2022-09-27T12:20:55.045Z,13.09
2022-09-27T12:23:27.278Z,12.90
2022-09-27T12:26:07.375Z,12.74
2022-09-27T12:28:41.976Z,12.48
2022-09-27T12:31:30.133Z,12.76
2022-09-27T12:34:19.645Z,13.25
2022-09-27T12:36:54.332Z,13.15
2022-09-27T12:39:26.835Z,13.12
2022-09-27T12:42:15.898Z,12.04
2022-09-27T12:44:50.718Z,12.34
2022-09-27T12:47:40.059Z,12.48
2022-09-27T12:50:29.059Z,12.50
2022-09-27T12:53:04.354Z,12.84
2022-09-27T12:55:48.481Z,12.98
2022-09-27T12:58:34.533Z,12.98
2022-09-27T13:01:15.079Z,13.78
2022-09-27T13:04:01.434Z,13.62
2022-09-27T13:06:43.558Z,13.36
2022-09-27T13:09:43.952Z,12.98
2022-09-27T13:12:15.067Z,13.24
2022-09-27T13:14:50.231Z,12.92
2022-09-27T13:17:50.023Z,12.49
2022-09-27T13:20:48.315Z,12.11
2022-09-27T13:24:00.555Z,12.44
2022-09-27T13:26:47.013Z,12.25
2022-09-27T13:29:27.703Z,12.14
2022-09-27T13:32:23.957Z,12.51
2022-09-27T13:35:19.854Z,12.41
2022-09-27T13:37:56.884Z,12.44
2022-09-27T13:40:37.809Z,12.64
2022-09-27T13:43:48.788Z,12.61
2022-09-27T13:46:36.203Z,12.45
2022-09-27T13:49:15.846Z,12.51
2022-09-27T13:52:06.799Z,12.73
2022-09-27T13:54:42.098Z,13.13
2022-09-27T13:57:42.543Z,12.80
2022-09-27T14:00:18.349Z,12.23
2022-09-27T14:03:02.631Z,12.50
2022-09-27T14:05:37.001Z,12.46
2022-09-27T14:08:08.338Z,12.62
2022-09-27T14:10:37.591Z,12.33
2022-09-27T14:13:08.214Z,12.73
2022-09-27T14:15:48.311Z,12.51
2022-09-27T14:18:16.785Z,12.82
2022-09-27T14:20:47.830Z,12.16
2022-09-27T14:23:34.290Z,11.91
2022-09-27T14:26:04.317Z,12.66
2022-09-27T14:28:42.536Z,12.28
2022-09-27T14:31:18.726Z,12.41
2022-09-27T14:34:16.067Z,12.61
2022-09-27T14:37:07.635Z,12.63
2022-09-27T14:39:56.263Z,12.45
2022-09-27T14:42:36.330Z,12.66
2022-09-27T14:45:25.710Z,12.56
2022-09-27T14:47:53.881Z,12.95
2022-09-27T14:50:25.750Z,13.17
2022-09-27T14:52:56.168Z,13.54
2022-09-27T14:55:28.271Z,13.13
2022-09-27T14:58:01.393Z,13.24
2022-09-27T15:00:33.911Z,13.17
2022-09-27T15:03:08.923Z,13.33
2022-09-27T15:05:37.119Z,13.29
2022-09-27T15:08:07.095Z,13.19
2022-09-27T15:10:37.667Z,13.02
2022-09-27T15:13:08.335Z,13.36
2022-09-27T15:15:39.919Z,13.13
2022-09-27T15:18:32.408Z,12.89
2022-09-27T15:21:01.268Z,12.72
2022-09-27T15:23:31.335Z,13.32
2022-09-27T15:26:07.028Z,13.57
2022-09-27T15:28:38.311Z,13.44
2022-09-27T15:31:08.629Z,13.14
2022-09-27T15:33:37.090Z,13.47
2022-09-27T15:36:07.472Z,13.38
2022-09-27T15:38:37.931Z,13.65
2022-09-27T15:41:09.464Z,13.36
2022-09-27T15:43:45.780Z,13.10
2022-09-27T15:46:30.331Z,13.02
2022-09-27T15:49:27.541Z,13.31
2022-09-27T15:51:57.252Z,13.26
2022-09-27T15:54:27.118Z,12.87
2022-09-27T15:56:58.299Z,12.93
2022-09-27T15:59:28.828Z,13.22
2022-09-27T16:02:04.264Z,12.85
2022-09-27T16:04:35.418Z,12.45
2022-09-27T16:07:05.377Z,12.45
2022-09-27T16:09:33.206Z,12.76
2022-09-27T16:12:01.351Z,12.55
2022-09-27T16:14:29.190Z,12.23
2022-09-27T16:16:59.978Z,12.58
2022-09-27T16:19:27.743Z,12.63
2022-09-27T16:21:55.589Z,12.65
2022-09-27T16:24:25.127Z,12.14
2022-09-27T16:26:52.870Z,12.38
2022-09-27T16:29:20.619Z,12.25
2022-09-27T16:31:48.535Z,12.20
2022-09-27T16:34:18.385Z,12.24
2022-09-27T16:36:46.220Z,12.01
2022-09-27T16:39:14.948Z,12.12
2022-09-27T16:41:43.582Z,12.34
2022-09-27T16:44:13.501Z,12.24
2022-09-27T16:46:42.183Z,12.25
2022-09-27T16:49:30.395Z,12.46
2022-09-27T16:52:01.608Z,12.36
2022-09-27T16:54:30.533Z,12.27
2022-09-27T16:56:59.698Z,12.36
2022-09-27T16:59:29.643Z,12.41
2022-09-27T17:01:58.152Z,12.43
2022-09-27T17:04:27.455Z,12.11
2022-09-27T17:06:55.287Z,12.29
2022-09-27T17:09:24.928Z,12.14
2022-09-27T17:11:53.126Z,11.95
2022-09-27T17:14:21.085Z,12.03
2022-09-27T17:16:50.452Z,11.88
2022-09-27T17:19:18.983Z,11.81
2022-09-27T17:21:47.608Z,11.78
2022-09-27T17:24:15.453Z,11.62
2022-09-27T17:26:45.126Z,11.85
2022-09-27T17:29:13.550Z,11.90
2022-09-27T17:31:42.875Z,11.99
2022-09-27T17:34:13.332Z,11.98
2022-09-27T17:36:43.238Z,11.77
2022-09-27T17:39:13.322Z,11.69
2022-09-27T17:41:45.060Z,12.17
2022-09-27T17:44:14.615Z,11.60
2022-09-27T17:46:44.284Z,11.79
2022-09-27T17:49:30.365Z,12.08
2022-09-27T17:51:58.592Z,12.08
2022-09-27T17:54:28.071Z,11.62
2022-09-27T17:56:57.287Z,12.03
2022-09-27T17:59:25.926Z,12.01
2022-09-27T18:01:56.261Z,11.58
2022-09-27T18:04:24.101Z,11.54
2022-09-27T18:06:51.846Z,11.52
2022-09-27T18:09:19.740Z,11.77
2022-09-27T18:11:48.205Z,11.25
2022-09-27T18:14:17.818Z,11.57
2022-09-27T18:16:45.865Z,11.62
2022-09-27T18:19:16.167Z,11.49
2022-09-27T18:21:44.131Z,11.33
2022-09-27T18:24:14.128Z,11.28
2022-09-27T18:26:42.189Z,11.52
2022-09-27T18:29:12.786Z,11.03
2022-09-27T18:31:47.965Z,11.19
2022-09-27T18:34:19.277Z,11.51
2022-09-27T18:36:49.427Z,11.47
2022-09-27T18:39:19.154Z,11.41
2022-09-27T18:41:48.587Z,11.05
2022-09-27T18:44:17.496Z,11.07
2022-09-27T18:46:47.198Z,11.01
2022-09-27T18:49:16.068Z,11.04
2022-09-27T18:51:46.967Z,11.18
2022-09-27T18:54:17.079Z,11.43
2022-09-27T18:56:45.175Z,11.42
2022-09-27T18:59:13.318Z,11.24
2022-09-27T19:01:45.057Z,10.78
2022-09-27T19:04:20.389Z,10.84
2022-09-27T19:06:49.881Z,11.25
2022-09-27T19:09:18.275Z,11.55
2022-09-27T19:11:46.721Z,10.85
2022-09-27T19:14:17.445Z,11.24
2022-09-27T19:16:47.153Z,11.24
2022-09-27T19:19:16.990Z,11.33
2022-09-27T19:21:45.312Z,11.44
2022-09-27T19:24:16.183Z,11.40
2022-09-27T19:26:44.129Z,11.04
2022-09-27T19:29:12.774Z,11.25
2022-09-27T19:31:42.882Z,11.15
2022-09-27T19:34:10.817Z,11.10
2022-09-27T19:36:39.953Z,11.01
2022-09-27T19:39:07.978Z,10.77
2022-09-27T19:41:35.830Z,10.98
2022-09-27T19:44:03.675Z,11.03
2022-09-27T19:46:31.568Z,10.94
2022-09-27T19:49:01.325Z,10.73
2022-09-27T19:51:30.169Z,10.98
2022-09-27T19:53:59.347Z,10.67
2022-09-27T19:56:27.065Z,10.77
2022-09-27T19:58:55.683Z,10.96
2022-09-27T20:01:25.767Z,10.88
2022-09-27T20:03:56.486Z,11.04
2022-09-27T20:06:24.348Z,10.81
2022-09-27T20:08:52.261Z,10.96
2022-09-27T20:11:23.083Z,10.36
2022-09-27T20:13:53.475Z,10.75
2022-09-27T20:16:23.401Z,10.84
2022-09-27T20:18:52.967Z,10.86
2022-09-27T20:21:23.051Z,10.86
2022-09-27T20:23:52.208Z,10.68
2022-09-27T20:26:23.083Z,10.79
2022-09-27T20:28:53.108Z,10.23
2022-09-27T20:31:22.999Z,10.28
2022-09-27T20:33:53.908Z,10.42
2022-09-27T20:36:23.803Z,10.58
2022-09-27T20:38:55.291Z,10.66
2022-09-27T20:41:26.992Z,10.46
2022-09-27T20:43:56.125Z,10.32
2022-09-27T20:46:25.618Z,10.65
2022-09-27T20:48:55.098Z,10.74
2022-09-27T20:51:24.120Z,10.75
2022-09-27T20:53:52.675Z,10.91
2022-09-27T20:56:22.595Z,10.89
2022-09-27T20:58:53.975Z,10.86
2022-09-27T21:01:23.485Z,10.68
2022-09-27T21:03:54.637Z,10.76
2022-09-27T21:06:23.882Z,10.42
2022-09-27T21:08:52.296Z,10.67
2022-09-27T21:11:20.897Z,10.66
2022-09-27T21:13:49.624Z,10.79
2022-09-27T21:16:20.507Z,10.80
2022-09-27T21:18:50.643Z,10.83
2022-09-27T21:21:19.835Z,10.97
2022-09-27T21:23:48.743Z,11.11
2022-09-27T21:26:18.281Z,11.03
2022-09-27T21:28:48.263Z,10.77
2022-09-27T21:31:22.515Z,10.84
2022-09-27T21:33:53.488Z,11.00
2022-09-27T21:36:22.836Z,11.06
2022-09-27T21:38:50.811Z,10.88
2022-09-27T21:41:19.679Z,11.03
2022-09-27T21:43:49.259Z,11.14
2022-09-27T21:46:20.261Z,11.17
2022-09-27T21:48:49.874Z,11.21
2022-09-27T21:51:19.873Z,11.12
2022-09-27T21:53:52.116Z,11.21
2022-09-27T21:56:20.949Z,11.16
2022-09-27T21:58:50.839Z,11.19
2022-09-27T22:01:23.841Z,10.94
2022-09-27T22:03:54.005Z,10.61
2022-09-27T22:06:26.464Z,10.76
2022-09-27T22:08:55.797Z,10.20
2022-09-27T22:11:25.559Z,10.54
2022-09-27T22:13:55.697Z,10.43
2022-09-27T22:16:26.745Z,10.72
2022-09-27T22:18:56.749Z,10.96
2022-09-27T22:21:27.115Z,11.12
2022-09-27T22:23:55.908Z,10.89
2022-09-27T22:26:26.049Z,10.94
2022-09-27T22:28:54.433Z,10.98
2022-09-27T22:31:26.219Z,11.13
2022-09-27T22:33:56.357Z,11.26
2022-09-27T22:36:24.954Z,10.97
2022-09-27T22:38:53.425Z,11.28
2022-09-27T22:41:21.865Z,11.24
2022-09-27T22:43:49.866Z,11.17
2022-09-27T22:46:19.231Z,11.32
2022-09-27T22:48:49.529Z,11.18
2022-09-27T22:51:18.306Z,11.16
2022-09-27T22:53:46.349Z,11.30
2022-09-27T22:56:16.692Z,11.24
2022-09-27T22:58:45.277Z,11.03
2022-09-27T23:01:16.894Z,11.30
2022-09-27T23:03:49.147Z,11.28
2022-09-27T23:19:24.630Z,11.03
2022-09-27T23:21:54.144Z,11.09
2022-09-27T23:24:23.555Z,10.97
2022-09-27T23:27:11.982Z,11.07
2022-09-27T23:29:40.110Z,10.99
2022-09-27T23:32:07.893Z,11.02
2022-09-27T23:34:37.819Z,10.87
2022-09-27T23:37:07.049Z,10.83
2022-09-27T23:39:34.858Z,10.90
2022-09-27T23:42:03.261Z,10.91
2022-09-27T23:44:31.325Z,10.61
2022-09-27T23:47:00.444Z,10.79
2022-09-27T23:49:28.712Z,10.77
2022-09-27T23:51:56.511Z,10.73
2022-09-27T23:54:25.649Z,10.81
2022-09-27T23:56:53.442Z,10.63
2022-09-27T23:59:21.242Z,10.58
